Latest Weather Observations for Avalon

IDV60901

Issued at 4:51 pm EST Saturday 30 May 2015 (issued every 10 minutes, with the page automatically refreshed every 10 minutes)

About weather observations | Map of Melbourne area stations | Latest observations for Melbourne area | Other Formats
Station Details ID: 087113 Name: AVALON AIRPORT Lat: -38.03 Lon: 144.48 Height: 10.6 m
Data from the previous 72 hours. | See also: Recent months at Avalon
Date/Time
EST
Tmp

°C
App
Tmp
°C
Dew
Point
°C
Rel
Hum
%
Delta-T

°C
Wind Press
QNH
hPa
Press
MSL
hPa
Rain
since
9 am
mm
Dir
 
Spd
km/h
Gust
km/h
Spd
kts
Gust
kts
30/04:30pm 14.2 8.8 7.9 66 3.1 NW 26 33 14 18 1015.4 1015.4 0.0
30/04:00pm 15.1 8.4 8.1 63 3.5 NW 33 46 18 25 1015.3 1015.3 0.0
30/03:30pm 14.7 8.7 8.6 67 3.1 WNW 30 37 16 20 1015.5 1015.5 0.0
30/03:00pm 14.2 7.8 8.6 69 2.8 WNW 32 41 17 22 1015.6 1015.6 0.0
30/02:30pm 14.1 7.6 8.9 71 2.6 NW 33 48 18 26 1015.7 1015.7 0.0
30/02:12pm 14.0 6.6 8.4 69 2.8 WNW 37 50 20 27 1015.8 1015.8 0.0
30/02:05pm 13.7 6.8 9.0 73 2.4 WNW 35 54 19 29 1015.9 1015.9 0.0
30/02:01pm 13.8 5.7 8.6 71 2.6 WNW 41 54 22 29 1015.9 1015.9 0.0
30/02:00pm 13.8 5.6 8.4 70 2.7 NW 41 54 22 29 1015.9 1015.9 0.0
30/01:36pm 15.7 7.9 6.7 55 4.4 NW 37 56 20 30 1015.7 1015.7 0.0
30/01:30pm 16.1 8.3 6.8 54 4.6 NW 37 48 20 26 1015.8 1015.8 0.0
30/01:09pm 16.0 7.7 6.2 52 4.8 NW 39 57 21 31 1015.8 1015.8 0.0
30/01:00pm 16.2 7.9 6.3 52 4.8 NW 39 50 21 27 1016.2 1016.2 0.0
30/12:30pm 16.4 7.3 6.0 50 5.0 NW 43 57 23 31 1016.3 1016.3 0.0
30/12:00pm 16.0 7.8 6.7 54 4.6 NW 39 54 21 29 1016.8 1016.8 0.0
30/11:30am 15.5 7.3 6.5 55 4.4 NNW 39 50 21 27 1017.2 1017.2 0.0
30/11:00am 14.9 5.9 6.2 56 4.2 NW 43 56 23 30 1017.9 1017.9 0.0
30/10:30am 14.8 6.5 6.1 56 4.2 NW 39 54 21 29 1018.4 1018.4 0.0
30/10:00am 13.8 6.3 6.4 61 3.5 NNW 35 44 19 24 1018.6 1018.6 0.0
30/09:30am 13.0 6.1 6.6 65 3.1 NNW 32 43 17 23 1018.9 1018.9 0.0
30/09:00am 12.0 6.3 6.7 70 2.5 NNW 26 35 14 19 1019.0 1019.0 0.0
30/08:30am 11.2 5.8 6.5 73 2.2 NNW 24 33 13 18 1019.0 1019.0 0.0
30/08:00am 9.7 5.1 6.4 80 1.5 N 20 26 11 14 1019.2 1019.2 0.0
30/07:30am 8.4 3.8 5.7 83 1.2 N 19 20 10 11 1019.3 1019.3 0.0
30/07:00am 9.1 4.6 6.0 81 1.4 N 19 26 10 14 1019.4 1019.4 0.0
30/06:30am 9.2 4.5 5.9 80 1.5 NNW 20 24 11 13 1019.5 1019.5 0.0
30/06:00am 9.7 5.0 6.2 79 1.6 NNW 20 28 11 15 1019.6 1019.6 0.0
30/05:30am 9.8 5.2 6.3 79 1.6 NNW 20 26 11 14 1019.5 1019.5 0.0
30/05:00am 9.8 5.2 6.5 80 1.5 NNW 20 26 11 14 1019.4 1019.4 0.0
30/04:30am 8.9 5.2 6.2 83 1.2 NNW 15 20 8 11 1019.4 1019.4 0.0
30/04:00am 9.3 5.3 6.6 83 1.3 NNW 17 20 9 11 1019.6 1019.6 0.0
30/03:30am 9.4 5.5 7.0 85 1.1 NNW 17 22 9 12 1019.9 1019.9 0.0
30/03:00am 7.2 3.7 5.3 88 0.8 N 13 15 7 8 1020.0 1020.0 0.0
30/02:30am 7.9 4.5 5.7 86 1.0 N 13 15 7 8 1020.2 1020.2 0.0
30/02:00am 8.9 5.6 6.5 85 1.1 N 13 15 7 8 1020.2 1020.2 0.0
30/01:30am 8.0 4.2 5.8 86 1.0 N 15 17 8 9 1020.7 1020.7 0.0
30/01:00am 8.1 4.2 5.4 83 1.2 N 15 17 8 9 1021.1 1021.1 0.0
30/12:30am 9.1 5.6 5.3 77 1.7 N 13 17 7 9 1021.2 1021.2 0.0
30/12:00am 11.5 7.1 6.4 71 2.4 NNW 19 26 10 14 1021.5 1021.5 0.0
 
Date/Time
EST
Tmp

°C
App
Tmp
°C
Dew
Point
°C
Rel
Hum
%
Delta-T

°C
Wind Press
QNH
hPa
Press
MSL
hPa
Rain
since
9 am
mm
Dir
 
Spd
km/h
Gust
km/h
Spd
kts
Gust
kts
29/11:30pm 11.2 7.2 6.5 73 2.2 NNW 17 19 9 10 1021.6 1021.6 0.0
29/11:00pm 11.1 6.6 6.3 72 2.2 N 19 22 10 12 1021.6 1021.6 0.0
29/10:30pm 10.7 6.1 6.5 75 2.0 N 20 24 11 13 1021.6 1021.6 0.0
29/10:00pm 9.9 6.0 5.5 74 2.0 N 15 17 8 9 1021.7 1021.7 0.0
29/09:30pm 10.9 7.2 6.3 73 2.2 NNW 15 17 8 9 1021.7 1021.7 0.0
29/09:00pm 10.9 6.8 6.3 73 2.1 N 17 19 9 10 1021.6 1021.6 0.0
29/08:30pm 10.0 6.5 5.6 74 2.0 N 13 15 7 8 1021.7 1021.7 0.0
29/08:00pm 10.8 7.4 5.8 71 2.3 N 13 15 7 8 1021.6 1021.6 0.0
29/07:30pm 10.7 7.2 5.5 70 2.4 N 13 17 7 9 1021.6 1021.6 0.0
29/07:00pm 10.8 7.4 6.0 72 2.2 N 13 15 7 8 1021.4 1021.4 0.0
29/06:30pm 10.4 7.2 5.2 70 2.4 N 11 13 6 7 1021.2 1021.2 0.0
29/06:00pm 12.2 8.4 5.8 65 3.0 NNW 15 17 8 9 1021.0 1021.0 0.0
29/05:30pm 13.5 10.1 5.7 59 3.7 NW 13 17 7 9 1020.8 1020.8 0.0
29/05:00pm 13.9 10.1 5.8 58 3.8 NW 15 20 8 11 1020.7 1020.7 0.0
29/04:30pm 14.3 9.1 5.4 55 4.2 NW 22 28 12 15 1020.6 1020.6 0.0
29/04:00pm 15.2 9.2 5.4 52 4.6 WNW 26 35 14 19 1020.4 1020.4 0.0
29/03:30pm 14.7 9.1 5.5 54 4.4 NW 24 32 13 17 1020.4 1020.4 0.0
29/03:00pm 14.9 9.5 6.2 56 4.2 NW 24 32 13 17 1020.5 1020.5 0.0
29/02:30pm 15.1 9.2 5.6 53 4.5 NW 26 35 14 19 1020.3 1020.3 0.0
29/02:00pm 14.5 8.7 6.3 58 3.9 NW 26 35 14 19 1020.4 1020.4 0.0
29/01:30pm 14.8 8.2 6.1 56 4.2 WNW 30 37 16 20 1020.6 1020.6 0.0
29/01:00pm 14.7 8.1 6.0 56 4.2 WNW 30 37 16 20 1020.6 1020.6 0.0
29/12:30pm 15.0 9.3 6.8 58 4.0 WNW 26 37 14 20 1020.8 1020.8 0.0
29/12:00pm 13.7 8.0 6.8 63 3.3 WNW 26 33 14 18 1021.3 1021.3 0.0
29/11:30am 13.3 6.7 6.2 62 3.4 W 30 43 16 23 1021.5 1021.5 0.0
29/11:00am 14.6 8.5 6.4 58 3.9 WNW 28 33 15 18 1021.6 1021.6 0.0
29/10:30am 13.9 7.9 7.0 63 3.4 WNW 28 39 15 21 1021.6 1021.6 0.0
29/10:00am 13.3 9.8 7.1 66 3.0 NW 15 22 8 12 1021.6 1021.6 0.0
29/09:30am 11.3 7.6 6.2 71 2.4 NW 15 22 8 12 1021.5 1021.5 0.0
29/09:00am 10.0 7.4 6.2 77 1.8 NW 9 13 5 7 1021.4 1021.4 0.0
29/08:30am 9.1 7.0 5.8 80 1.5 NW 6 11 3 6 1021.3 1021.3 0.0
29/08:00am 7.9 5.0 4.8 81 1.4 NNW 9 11 5 6 1020.8 1020.8 0.0
29/07:30am 7.9 4.3 4.8 81 1.4 NNW 13 17 7 9 1020.4 1020.4 0.0
29/07:00am 7.7 3.0 5.0 83 1.2 NNW 19 20 10 11 1020.0 1020.0 0.0
29/06:30am 7.7 3.6 4.5 80 1.4 NNW 15 20 8 11 1019.9 1019.9 0.0
29/06:00am 8.4 4.4 5.0 79 1.5 NW 15 19 8 10 1019.6 1019.6 0.0
29/05:30am 8.9 4.6 5.1 77 1.7 NW 17 22 9 12 1019.4 1019.4 0.0
29/05:00am 9.1 4.2 5.1 76 1.8 WNW 20 24 11 13 1018.9 1018.9 0.0
29/04:30am 9.4 4.7 5.2 75 1.9 NW 19 22 10 12 1018.8 1018.8 0.0
29/04:00am 9.8 5.2 5.6 75 1.9 NW 19 24 10 13 1018.5 1018.5 0.0
29/03:30am 10.1 5.3 5.5 73 2.1 NW 20 26 11 14 1018.3 1018.3 0.0
29/03:00am 10.4 5.3 5.8 73 2.1 NW 22 32 12 17 1018.2 1018.2 0.0
29/02:30am 10.1 6.2 5.5 73 2.1 NW 15 20 8 11 1018.3 1018.3 0.0
29/02:00am 9.6 6.1 5.4 75 1.9 NW 13 17 7 9 1018.2 1018.2 0.0
29/01:30am 10.3 7.4 6.5 77 1.8 NW 11 15 6 8 1017.9 1017.9 0.0
29/01:00am 10.4 7.2 6.9 79 1.6 NW 13 20 7 11 1017.7 1017.7 0.0
29/12:30am 11.3 6.9 7.2 76 2.0 NW 20 30 11 16 1017.4 1017.4 0.0
29/12:00am 11.7 7.3 7.6 76 2.0 WNW 20 28 11 15 1017.0 1017.0 0.0
 
Date/Time
EST
Tmp

°C
App
Tmp
°C
Dew
Point
°C
Rel
Hum
%
Delta-T

°C
Wind Press
QNH
hPa
Press
MSL
hPa
Rain
since
9 am
mm
Dir
 
Spd
km/h
Gust
km/h
Spd
kts
Gust
kts
28/11:30pm 12.0 7.2 7.5 74 2.2 WNW 22 30 12 16 1016.9 1016.9 0.0
28/11:00pm 12.6 7.5 7.7 72 2.4 WNW 24 30 13 16 1016.9 1016.9 0.0
28/10:30pm 12.9 8.4 8.4 74 2.2 WNW 22 30 12 16 1016.8 1016.8 0.0
28/10:00pm 13.2 8.0 8.7 74 2.3 NW 26 35 14 19 1016.6 1016.6 0.0
28/09:30pm 13.1 8.4 9.2 77 2.0 NW 24 32 13 17 1016.6 1016.6 0.0
28/09:00pm 12.8 9.5 9.4 80 1.7 NW 17 24 9 13 1016.5 1016.5 0.0
28/08:30pm 13.0 7.6 9.6 80 1.7 WNW 28 35 15 19 1016.3 1016.3 0.0
28/08:00pm 13.3 8.7 11.2 87 1.1 W 26 37 14 20 1016.0 1016.0 0.0
28/07:30pm 14.3 10.2 10.1 76 2.2 W 22 30 12 16 1015.5 1015.5 0.0
28/07:00pm 15.0 10.1 9.8 71 2.7 WSW 26 37 14 20 1014.8 1014.8 0.0
28/06:30pm 16.8 11.8 8.2 57 4.4 W 24 33 13 18 1013.7 1013.7 0.0
28/06:00pm 17.6 14.0 6.8 49 5.4 NW 15 17 8 9 1013.1 1013.1 0.0
28/05:30pm 18.1 13.7 6.6 47 5.7 NW 19 24 10 13 1012.7 1012.7 0.0
28/05:00pm 19.0 12.6 6.8 45 6.1 NW 30 46 16 25 1012.3 1012.3 0.0
28/04:30pm 19.9 12.6 7.0 43 6.5 NNW 35 50 19 27 1012.2 1012.2 0.0
28/04:22pm 20.3 13.4 6.6 41 6.9 NNW 32 50 17 27 1012.1 1012.1 0.0
28/04:00pm 20.2 12.0 6.5 41 6.9 NNW 39 50 21 27 1012.0 1012.0 0.0
28/03:30pm 20.3 12.2 7.0 42 6.8 NNW 39 54 21 29 1012.2 1012.2 0.0
28/03:00pm 20.7 12.8 7.7 43 6.7 NNW 39 54 21 29 1012.3 1012.3 0.0
28/02:30pm 21.0 12.8 6.5 39 7.3 NW 39 50 21 27 1012.6 1012.6 0.0
28/02:09pm 21.2 12.6 6.7 39 7.4 NNW 41 59 22 32 1012.6 1012.6 0.0
28/02:00pm 21.1 12.0 6.6 39 7.3 NNW 44 59 24 32 1012.6 1012.6 0.0
28/01:30pm 21.3 12.0 6.0 37 7.7 NNW 44 59 24 32 1012.8 1012.8 0.0
28/01:11pm 21.8 13.8 7.6 40 7.4 NNW 39 57 21 31 1013.0 1013.0 0.0
28/01:00pm 21.0 12.5 6.9 40 7.2 NNW 41 56 22 30 1013.0 1013.0 0.0
28/12:30pm 20.5 12.1 7.5 43 6.7 NNW 41 50 22 27 1013.6 1013.6 0.0
28/12:11pm 21.0 13.3 6.9 40 7.2 NNW 37 61 20 33 1014.0 1014.0 0.0
28/12:00pm 21.3 14.0 8.9 45 6.6 NNW 37 48 20 26 1014.3 1014.3 0.0
28/11:30am 20.3 12.7 9.2 49 5.9 NNW 39 50 21 27 1014.6 1014.6 0.0
28/11:05am 19.3 11.6 8.6 50 5.6 N 39 57 21 31 1015.0 1015.0 0.0
28/11:00am 19.6 12.0 9.2 51 5.5 N 39 54 21 29 1015.2 1015.2 0.0
28/10:40am 18.8 12.4 8.7 52 5.3 N 32 50 17 27 1015.6 1015.6 0.0
28/10:30am 18.1 12.3 9.5 57 4.5 N 30 39 16 21 1015.8 1015.8 0.0
28/10:00am 16.6 11.3 10.0 65 3.5 N 28 37 15 20 1016.0 1016.0 0.0
28/09:30am 14.7 9.6 9.1 69 2.9 N 26 33 14 18 1016.1 1016.1 0.0
28/09:00am 13.5 9.5 9.2 75 2.2 N 20 26 11 14 1016.3 1016.3 0.0
28/08:30am 13.0 8.1 8.3 73 2.3 N 24 33 13 18 1016.2 1016.2 0.0
28/08:00am 13.0 8.4 8.3 73 2.3 N 22 28 12 15 1016.2 1016.2 0.0
28/07:30am 13.7 9.7 8.1 69 2.8 N 19 26 10 14 1016.3 1016.3 0.0
28/07:00am 13.6 10.1 8.9 73 2.4 N 17 22 9 12 1016.4 1016.4 0.0
28/06:30am 13.8 9.8 9.0 73 2.4 NNE 20 28 11 15 1015.9 1015.9 0.0
28/06:00am 13.7 10.3 9.0 73 2.4 NNE 17 20 9 11 1015.8 1015.8 0.0
28/05:30am 13.4 9.4 8.9 74 2.3 N 20 26 11 14 1015.8 1015.8 0.0
28/05:00am 12.9 8.8 8.8 76 2.1 N 20 26 11 14 1016.2 1016.2 0.0
28/04:30am 13.0 9.0 8.9 76 2.1 N 20 24 11 13 1016.1 1016.1 0.0
28/04:00am 12.8 8.8 8.9 77 2.0 N 20 24 11 13 1016.3 1016.3 0.0
28/03:30am 12.7 7.9 9.0 78 1.9 N 24 33 13 18 1016.3 1016.3 0.0
28/03:00am 12.0 7.5 8.7 80 1.6 N 22 26 12 14 1016.7 1016.7 0.0
28/02:30am 12.3 7.9 9.0 80 1.7 N 22 28 12 15 1016.8 1016.8 0.0
28/02:00am 12.6 8.6 9.2 80 1.7 N 20 24 11 13 1016.9 1016.9 0.0
28/01:30am 13.0 8.3 9.3 78 1.9 N 24 32 13 17 1017.1 1017.1 0.0
28/01:00am 13.4 8.8 9.5 77 2.0 N 24 30 13 16 1017.2 1017.2 0.0
28/12:30am 14.1 9.5 9.5 74 2.4 N 24 33 13 18 1017.4 1017.4 0.0
28/12:00am 14.5 9.9 9.7 73 2.5 N 24 35 13 19 1017.5 1017.5 0.0
 
Date/Time
EST
Tmp

°C
App
Tmp
°C
Dew
Point
°C
Rel
Hum
%
Delta-T

°C
Wind Press
QNH
hPa
Press
MSL
hPa
Rain
since
9 am
mm
Dir
 
Spd
km/h
Gust
km/h
Spd
kts
Gust
kts
27/11:30pm 14.9 10.4 10.1 73 2.5 N 24 30 13 16 1017.7 1017.7 0.0
27/11:00pm 14.9 10.9 10.3 74 2.4 N 22 30 12 16 1017.8 1017.8 0.0
27/10:30pm 14.2 11.8 10.0 76 2.2 N 13 17 7 9 1017.9 1017.9 0.0
27/10:00pm 14.3 11.5 9.9 75 2.3 N 15 20 8 11 1018.1 1018.1 0.0
27/09:30pm 14.8 10.7 10.2 74 2.4 N 22 33 12 18 1017.8 1017.8 0.0
27/09:00pm 14.4 10.3 10.0 75 2.3 N 22 30 12 16 1017.7 1017.7 0.0
27/08:30pm 13.9 9.7 9.9 77 2.1 N 22 32 12 17 1017.8 1017.8 0.0
27/08:00pm 11.5 9.2 8.9 84 1.3 NE 11 17 6 9 1017.9 1017.9 0.0
27/07:30pm 12.2 9.9 9.0 81 1.6 NNE 11 17 6 9 1018.1 1018.1 0.0
27/07:00pm 13.3 9.6 9.5 78 1.9 N 19 22 10 12 1018.1 1018.1 0.0
27/06:30pm 13.5 10.1 9.2 75 2.2 N 17 24 9 13 1018.0 1018.0 0.0
27/06:00pm 14.6 11.2 9.2 70 2.8 NNW 17 22 9 12 1017.8 1017.8 0.0
27/05:30pm 15.4 12.7 9.1 66 3.2 NNW 13 19 7 10 1017.5 1017.5 0.0
27/05:00pm 17.7 13.8 9.3 58 4.4 NW 20 32 11 17 1017.2 1017.2 0.0

Latest Capital City Observations: Canberra | Sydney | Melbourne | Brisbane | Adelaide | Perth | Hobart | Darwin

Other Formats:

Comma delimited format used in spreadsheet applications
http://www.bom.gov.au/fwo/IDV60901/IDV60901.94854.axf

JavaScript Object Notation format (JSON) in row-major order
http://www.bom.gov.au/fwo/IDV60901/IDV60901.94854.json